Time;durP1;ratioP1;P1;durP2;ratioP2;P2;SDS_P1;SDS_P2;PMS_P1;PMS_P2;Temp;Humidity;BMP_temperature;BMP_pressure;BME280_temperature;BME280_humidity;BME280_pressure;Samples;Min_cycle;Max_cycle;Signal;HPM_P1;HPM_P2
2021/05/18 00:01:08;;;;;;;20.03;13.00;;;;;;;;;;6244509;22;20199;-70
2021/05/18 00:03:53;;;;;;;21.80;13.17;;;;;;;;;;6245053;23;20208;-70
2021/05/18 00:06:37;;;;;;;20.00;12.83;;;;;;;;;;6244296;23;20176;-70
2021/05/18 00:12:26;;;;;;;21.23;13.13;;;;;;;;;;6244444;22;20242;-70
2021/05/18 00:15:13;;;;;;;18.40;13.03;;;;;;;;;;6243956;23;20172;-70
2021/05/18 00:17:57;;;;;;;20.00;13.00;;;;;;;;;;6244573;23;20173;-70
2021/05/18 00:20:42;;;;;;;17.97;12.30;;;;;;;;;;6244593;22;20180;-69
2021/05/18 00:23:26;;;;;;;23.37;13.43;;;;;;;;;;6244499;23;20177;-70
2021/05/18 00:26:12;;;;;;;22.70;17.67;;;;;;;;;;6242603;23;20364;-70
2021/05/18 00:28:57;;;;;;;24.33;14.20;;;;;;;;;;6244664;23;20574;-69
2021/05/18 00:31:41;;;;;;;18.50;14.37;;;;;;;;;;6244398;22;20522;-70
2021/05/18 00:34:26;;;;;;;21.53;13.40;;;;;;;;;;6244383;23;20197;-70
2021/05/18 00:37:10;;;;;;;22.13;13.47;;;;;;;;;;6243790;23;20231;-70
2021/05/18 00:39:55;;;;;;;18.00;13.60;;;;;;;;;;6244403;23;20168;-70
2021/05/18 00:42:45;;;;;;;27.03;15.50;;;;;;;;;;6244134;22;20212;-70
2021/05/18 00:45:31;;;;;;;20.33;13.93;;;;;;;;;;6243805;23;20165;-70
2021/05/18 00:48:16;;;;;;;18.77;14.13;;;;;;;;;;6244318;23;20211;-70
2021/05/18 00:51:02;;;;;;;19.20;13.80;;;;;;;;;;6244332;22;20200;-70
2021/05/18 00:53:46;;;;;;;20.30;14.23;;;;;;;;;;6244228;23;20572;-69
2021/05/18 00:59:33;;;;;;;23.30;14.40;;;;;;;;;;6243856;23;20251;-70
2021/05/18 01:02:17;;;;;;;15.37;13.70;;;;;;;;;;6244106;22;20258;-70
2021/05/18 01:05:09;;;;;;;18.07;13.27;;;;;;;;;;6243961;23;20611;-70
2021/05/18 01:07:54;;;;;;;23.13;14.90;;;;;;;;;;6244255;23;20181;-70
2021/05/18 01:10:38;;;;;;;22.47;15.07;;;;;;;;;;6244269;22;20192;-70
2021/05/18 01:13:23;;;;;;;23.87;16.00;;;;;;;;;;6244160;23;20682;-70
2021/05/18 01:16:09;;;;;;;25.50;20.05;;;;;;;;;;6242209;23;20407;-70
2021/05/18 01:18:54;;;;;;;22.70;16.63;;;;;;;;;;6244095;23;20647;-70
2021/05/18 01:21:40;;;;;;;24.60;15.17;;;;;;;;;;6243844;22;20200;-70
2021/05/18 01:24:24;;;;;;;22.70;16.20;;;;;;;;;;6243998;23;20611;-70
2021/05/18 01:27:09;;;;;;;20.77;15.07;;;;;;;;;;6243440;23;20173;-70
2021/05/18 01:29:53;;;;;;;21.67;15.17;;;;;;;;;;6243888;23;20173;-69
2021/05/18 01:32:42;;;;;;;22.30;15.23;;;;;;;;;;6243743;22;20204;-70
2021/05/18 01:35:28;;;;;;;20.50;15.67;;;;;;;;;;6243641;23;20326;-70
2021/05/18 01:38:16;;;;;;;23.23;15.87;;;;;;;;;;6243772;23;20169;-69
2021/05/18 01:44:04;;;;;;;17.93;14.27;;;;;;;;;;6243857;23;20172;-69
2021/05/18 01:46:52;;;;;;;17.60;14.20;;;;;;;;;;6243183;23;20225;-70
2021/05/18 01:49:43;;;;;;;18.93;14.80;;;;;;;;;;6243747;23;20169;-70
2021/05/18 01:52:30;;;;;;;22.23;15.60;;;;;;;;;;6243193;22;20239;-69
2021/05/18 01:55:21;;;;;;;22.83;16.80;;;;;;;;;;6243020;23;20180;-70
2021/05/18 01:58:06;;;;;;;22.93;16.93;;;;;;;;;;6243603;23;20671;-70
2021/05/18 02:00:51;;;;;;;23.03;17.10;;;;;;;;;;6243518;22;20239;-69
2021/05/18 02:03:35;;;;;;;21.23;16.63;;;;;;;;;;6243710;23;20223;-69
2021/05/18 02:06:20;;;;;;;25.15;19.67;;;;;;;;;;6241694;23;20404;-69
2021/05/18 02:09:05;;;;;;;25.03;18.13;;;;;;;;;;6243888;23;20173;-69
2021/05/18 02:11:51;;;;;;;21.97;16.50;;;;;;;;;;6243577;22;20196;-69
2021/05/18 02:14:37;;;;;;;21.63;16.93;;;;;;;;;;6243680;23;20232;-69
2021/05/18 02:17:28;;;;;;;19.90;16.07;;;;;;;;;;6242978;23;20169;-69
2021/05/18 02:20:21;;;;;;;20.53;17.13;;;;;;;;;;6243322;23;20188;-69
2021/05/18 02:26:08;;;;;;;24.10;16.63;;;;;;;;;;6242706;23;20200;-69
2021/05/18 02:28:54;;;;;;;27.03;17.67;;;;;;;;;;6243334;23;20296;-69
2021/05/18 02:31:39;;;;;;;25.33;16.93;;;;;;;;;;6243217;22;20331;-69
2021/05/18 02:34:23;;;;;;;21.47;16.63;;;;;;;;;;6243114;23;20197;-69
2021/05/18 02:37:07;;;;;;;21.00;16.13;;;;;;;;;;6242758;23;20169;-69
2021/05/18 02:39:52;;;;;;;21.43;16.90;;;;;;;;;;6243461;23;20234;-69
2021/05/18 02:42:37;;;;;;;21.53;17.40;;;;;;;;;;6242985;22;20718;-69
2021/05/18 02:45:29;;;;;;;25.10;17.00;;;;;;;;;;6242787;23;20172;-69
2021/05/18 02:51:16;;;;;;;23.33;17.80;;;;;;;;;;6243159;22;20813;-69
2021/05/18 02:54:01;;;;;;;24.77;17.97;;;;;;;;;;6243078;23;20207;-69
2021/05/18 02:56:51;;;;;;;28.90;23.73;;;;;;;;;;6240830;23;20859;-69
2021/05/18 02:59:36;;;;;;;28.40;20.17;;;;;;;;;;6243330;23;20169;-69
2021/05/18 03:02:23;;;;;;;29.57;20.20;;;;;;;;;;6242923;22;20208;-69
2021/05/18 03:05:08;;;;;;;27.17;17.87;;;;;;;;;;6242602;23;20447;-69
2021/05/18 03:07:53;;;;;;;28.10;19.40;;;;;;;;;;6242687;23;20507;-69
2021/05/18 03:10:38;;;;;;;24.53;18.27;;;;;;;;;;6243237;22;20667;-69
2021/05/18 03:13:22;;;;;;;31.47;19.87;;;;;;;;;;6243287;23;20579;-69
2021/05/18 03:16:07;;;;;;;27.77;19.23;;;;;;;;;;6242547;23;20172;-69
2021/05/18 03:18:52;;;;;;;27.10;18.77;;;;;;;;;;6243100;23;20169;-69
2021/05/18 03:21:37;;;;;;;25.00;18.57;;;;;;;;;;6242953;22;20212;-69
2021/05/18 03:24:21;;;;;;;28.17;19.07;;;;;;;;;;6242953;23;20612;-69
2021/05/18 03:27:07;;;;;;;27.93;18.87;;;;;;;;;;6242473;23;20196;-69
2021/05/18 03:29:52;;;;;;;24.87;18.97;;;;;;;;;;6243607;23;20209;-69
2021/05/18 03:35:40;;;;;;;28.90;20.13;;;;;;;;;;6243958;23;20246;-69
2021/05/18 03:38:36;;;;;;;;;;;;;;;;;;;;;
2021/05/18 03:41:26;;;;;;;30.10;20.17;;;;;;;;;;6244444;22;20259;-69
2021/05/18 03:44:18;;;;;;;25.00;20.37;;;;;;;;;;6245015;23;20173;-69
2021/05/18 03:53:25;;;;;;;25.47;20.57;;;;;;;;;;6244739;23;20255;-69
2021/05/18 04:10:11;;;;;;;26.67;21.43;;;;;;;;;;6244135;23;20265;-69
2021/05/18 04:11:54;;;;;;;28.27;22.87;;;;;;;;;;6244331;22;20200;-69
2021/05/18 04:17:52;;;;;;;32.57;25.33;;;;;;;;;;6244578;23;20173;-69
2021/05/18 04:20:48;;;;;;;35.87;29.90;;;;;;;;;;6243686;22;20463;-70
2021/05/18 04:23:44;;;;;;;32.00;26.50;;;;;;;;;;6244488;23;20169;-69
2021/05/18 04:26:37;;;;;;;31.20;25.90;;;;;;;;;;6243999;23;20220;-69
2021/05/18 04:38:55;;;;;;;39.37;32.93;;;;;;;;;;6244369;23;20168;-69
2021/05/18 04:42:01;;;;;;;41.87;34.47;;;;;;;;;;6244147;22;20207;-69
2021/05/18 04:48:28;;;;;;;41.87;34.80;;;;;;;;;;6121740;23;20584;-68
2021/05/18 04:51:21;;;;;;;40.23;33.67;;;;;;;;;;6121658;23;20601;-68
2021/05/18 05:00:19;;;;;;;44.87;36.97;;;;;;;;;;6170166;22;20236;-68
2021/05/18 05:03:22;;;;;;;45.43;38.00;;;;;;;;;;6244190;23;20293;-68
2021/05/18 05:09:18;;;;;;;44.40;37.77;;;;;;;;;;6244197;23;20166;-69
2021/05/18 05:15:06;;;;;;;45.00;36.63;;;;;;;;;;6243690;23;20172;-68
2021/05/18 05:17:55;;;;;;;42.43;37.77;;;;;;;;;;6243893;23;20624;-68
2021/05/18 05:20:40;;;;;;;43.23;37.20;;;;;;;;;;6243885;22;20248;-69
2021/05/18 05:23:25;;;;;;;42.57;36.23;;;;;;;;;;6243859;23;20174;-68
2021/05/18 05:26:12;;;;;;;47.95;42.88;;;;;;;;;;6242671;23;20770;-69
2021/05/18 05:28:57;;;;;;;44.10;38.27;;;;;;;;;;6243909;23;20176;-68
2021/05/18 05:31:43;;;;;;;42.53;37.93;;;;;;;;;;6243648;22;20526;-68
2021/05/18 05:34:32;;;;;;;41.97;37.20;;;;;;;;;;6243591;23;20198;-69
2021/05/18 05:37:23;;;;;;;42.80;38.00;;;;;;;;;;6243402;23;20510;-69
2021/05/18 05:40:08;;;;;;;44.70;38.43;;;;;;;;;;6244343;22;20190;-69
2021/05/18 05:42:53;;;;;;;44.30;38.70;;;;;;;;;;6244225;23;20219;-68
2021/05/18 05:45:38;;;;;;;44.03;38.57;;;;;;;;;;6243241;23;20211;-69
2021/05/18 05:48:23;;;;;;;42.97;38.37;;;;;;;;;;6243758;23;20171;-69
2021/05/18 05:51:08;;;;;;;43.63;38.97;;;;;;;;;;6243524;22;20204;-69
2021/05/18 05:53:53;;;;;;;43.13;37.97;;;;;;;;;;6243455;23;20202;-69
2021/05/18 05:56:38;;;;;;;43.63;36.80;;;;;;;;;;6242931;23;20167;-69
2021/05/18 05:59:23;;;;;;;40.70;36.33;;;;;;;;;;6243499;23;20226;-69
2021/05/18 06:02:08;;;;;;;39.13;35.20;;;;;;;;;;6243496;22;20589;-69
2021/05/18 06:04:55;;;;;;;38.63;34.53;;;;;;;;;;6243566;23;20219;-69
2021/05/18 06:07:40;;;;;;;37.20;33.40;;;;;;;;;;6243503;23;20205;-69
2021/05/18 06:10:27;;;;;;;35.03;31.53;;;;;;;;;;6243565;22;20242;-69
2021/05/18 06:41:08;;;;;;;32.00;28.80;;;;;;;;;;6207836;23;20184;-71
2021/05/18 06:41:13;;;;;;;30.67;27.67;;;;;;;;;;6243455;22;20540;-69
2021/05/18 06:47:07;;;;;;;32.77;29.30;;;;;;;;;;6240666;23;20626;-69
2021/05/18 06:50:11;;;;;;;37.40;33.65;;;;;;;;;;6242703;22;20405;-70
2021/05/18 06:52:56;;;;;;;34.90;31.40;;;;;;;;;;6243250;23;20275;-72
2021/05/18 06:55:41;;;;;;;35.00;31.40;;;;;;;;;;6242805;23;20170;-70
2021/05/18 06:58:46;;;;;;;34.87;31.27;;;;;;;;;;6243175;23;20638;-69
2021/05/18 07:01:30;;;;;;;35.03;31.30;;;;;;;;;;6243198;22;20199;-69
2021/05/18 07:04:17;;;;;;;34.57;30.20;;;;;;;;;;6243318;23;20171;-70
2021/05/18 07:07:08;;;;;;;42.90;38.75;;;;;;;;;;6240755;23;20895;-69
2021/05/18 07:10:02;;;;;;;36.10;32.23;;;;;;;;;;6244774;22;20614;-69
2021/05/18 07:13:07;;;;;;;31.47;28.27;;;;;;;;;;6245145;23;20247;-69
2021/05/18 07:15:51;;;;;;;20.20;18.20;;;;;;;;;;6244639;23;20184;-70
2021/05/18 07:18:42;;;;;;;10.70;9.80;;;;;;;;;;6245027;23;20171;-69
2021/05/18 07:21:27;;;;;;;7.63;7.03;;;;;;;;;;6244618;22;20199;-69
2021/05/18 07:24:20;;;;;;;6.50;5.90;;;;;;;;;;6244856;23;20495;-70
2021/05/18 07:27:05;;;;;;;6.53;6.03;;;;;;;;;;6244471;23;20216;-71
2021/05/18 07:29:49;;;;;;;7.93;7.23;;;;;;;;;;6245180;22;20172;-70
2021/05/18 07:32:34;;;;;;;9.40;8.70;;;;;;;;;;6243556;23;20622;-71
2021/05/18 07:38:19;;;;;;;14.73;13.33;;;;;;;;;;6245128;23;20274;-72
2021/05/18 07:41:08;;;;;;;20.10;18.30;;;;;;;;;;6244424;22;20384;-72
2021/05/18 07:43:54;;;;;;;20.73;18.83;;;;;;;;;;6244998;23;20225;-71
2021/05/18 07:46:39;;;;;;;21.77;19.77;;;;;;;;;;6243982;23;20217;-73
2021/05/18 07:49:30;;;;;;;24.17;21.90;;;;;;;;;;6244645;23;20216;-70
2021/05/18 08:07:30;;;;;;;22.83;20.87;;;;;;;;;;6244303;23;20191;-70
2021/05/18 08:10:16;;;;;;;22.00;19.90;;;;;;;;;;6244604;22;20251;-70
2021/05/18 08:13:02;;;;;;;20.27;18.37;;;;;;;;;;6244428;23;20169;-71
2021/05/18 08:16:30;;;;;;;19.47;17.80;;;;;;;;;;6243883;23;20546;-70
2021/05/18 08:22:37;;;;;;;19.97;18.27;;;;;;;;;;6198327;23;20188;-69
2021/05/18 10:27:13;;;;;;;8.47;7.77;;;;;;;;;;6242346;23;20432;-73
2021/05/18 10:35:42;;;;;;;8.60;7.80;;;;;;;;;;6242482;23;20698;-71
2021/05/18 10:38:28;;;;;;;6.93;6.30;;;;;;;;;;6242078;23;20208;-70
2021/05/18 10:41:13;;;;;;;6.80;6.20;;;;;;;;;;6242995;23;20220;-71
2021/05/18 10:43:59;;;;;;;6.20;5.70;;;;;;;;;;6242374;23;20216;-71
2021/05/18 10:49:53;;;;;;;7.07;6.47;;;;;;;;;;6242921;22;20679;-71
2021/05/18 10:52:38;;;;;;;7.10;6.43;;;;;;;;;;6242935;23;20228;-69
2021/05/18 10:55:23;;;;;;;7.77;7.17;;;;;;;;;;6242348;23;20247;-69
2021/05/18 10:58:17;;;;;;;8.13;7.43;;;;;;;;;;6242951;23;20177;-69
2021/05/18 11:01:02;;;;;;;5.67;5.07;;;;;;;;;;6241566;23;20219;-69
2021/05/18 11:03:47;;;;;;;9.00;8.20;;;;;;;;;;6239917;23;20701;-69
2021/05/18 11:06:32;;;;;;;9.30;8.43;;;;;;;;;;6240553;23;20165;-69
2021/05/18 11:09:27;;;;;;;7.43;6.73;;;;;;;;;;6240725;22;20217;-69
2021/05/18 11:12:13;;;;;;;6.47;5.87;;;;;;;;;;6240027;23;20217;-69
2021/05/18 11:15:11;;;;;;;5.83;5.43;;;;;;;;;;6240614;23;20525;-69
2021/05/18 11:17:56;;;;;;;5.40;5.00;;;;;;;;;;6239758;23;20249;-69
2021/05/18 11:20:56;;;;;;;6.03;5.53;;;;;;;;;;6239008;23;20444;-69
2021/05/18 11:23:40;;;;;;;4.97;4.57;;;;;;;;;;6240412;23;20224;-69
2021/05/18 11:26:24;;;;;;;5.23;4.83;;;;;;;;;;6239893;23;20520;-70
2021/05/18 11:29:09;;;;;;;5.83;5.33;;;;;;;;;;6240480;22;20675;-71
2021/05/18 11:32:07;;;;;;;6.07;5.50;;;;;;;;;;6240354;23;20172;-70
2021/05/18 11:34:57;;;;;;;6.60;5.87;;;;;;;;;;6241680;23;20196;-70
2021/05/18 11:37:42;;;;;;;7.17;6.20;;;;;;;;;;6242542;23;20608;-70
2021/05/18 11:40:28;;;;;;;6.70;6.10;;;;;;;;;;6241747;22;20196;-70
2021/05/18 11:43:14;;;;;;;8.07;7.27;;;;;;;;;;6242342;22;20247;-75
2021/05/18 11:46:02;;;;;;;7.97;7.20;;;;;;;;;;6241989;23;20615;-76
2021/05/18 11:48:54;;;;;;;8.53;7.30;;;;;;;;;;6242325;22;20204;-75
2021/05/18 11:51:42;;;;;;;7.07;6.33;;;;;;;;;;6242561;23;20667;-75
2021/05/18 11:54:27;;;;;;;4.90;4.27;;;;;;;;;;6241740;23;20251;-73
2021/05/18 11:57:13;;;;;;;3.00;2.80;;;;;;;;;;6244285;23;20165;-74
2021/05/18 11:59:57;;;;;;;2.90;2.30;;;;;;;;;;6244666;23;20253;-74
2021/05/18 12:02:42;;;;;;;2.87;2.67;;;;;;;;;;6244490;23;20192;-74
2021/05/18 12:05:26;;;;;;;4.53;3.40;;;;;;;;;;6244255;23;20292;-74
2021/05/18 12:08:23;;;;;;;4.80;4.35;;;;;;;;;;6243462;22;20413;-74
2021/05/18 12:11:15;;;;;;;4.27;3.97;;;;;;;;;;6244261;23;20255;-74
2021/05/18 12:14:06;;;;;;;4.47;3.33;;;;;;;;;;6244295;23;20216;-74
2021/05/18 12:16:51;;;;;;;4.23;3.93;;;;;;;;;;6243709;23;20189;-74
2021/05/18 12:19:37;;;;;;;4.10;3.70;;;;;;;;;;6244489;22;20243;-74
2021/05/18 12:22:22;;;;;;;3.63;3.33;;;;;;;;;;6244185;23;20231;-74
2021/05/18 12:25:07;;;;;;;3.80;3.40;;;;;;;;;;6243669;23;20169;-74
2021/05/18 12:27:51;;;;;;;4.57;3.80;;;;;;;;;;6243912;22;20197;-74
2021/05/18 12:30:38;;;;;;;4.33;3.93;;;;;;;;;;6243813;23;20238;-74
2021/05/18 12:33:33;;;;;;;6.03;5.33;;;;;;;;;;6244055;23;20243;-74
2021/05/18 12:36:18;;;;;;;5.07;4.57;;;;;;;;;;6243538;23;20184;-73
2021/05/18 12:39:06;;;;;;;4.27;3.87;;;;;;;;;;6244207;22;20663;-74
2021/05/18 12:41:56;;;;;;;4.67;4.30;;;;;;;;;;6244035;23;20685;-74
2021/05/18 12:44:51;;;;;;;4.83;4.33;;;;;;;;;;6243670;23;20172;-74
2021/05/18 12:47:39;;;;;;;4.50;4.07;;;;;;;;;;6243673;22;20197;-74
2021/05/18 12:50:33;;;;;;;4.80;4.30;;;;;;;;;;6243715;23;20208;-74
2021/05/18 12:53:22;;;;;;;5.57;4.43;;;;;;;;;;6243870;23;20189;-74
2021/05/18 12:56:08;;;;;;;6.17;3.60;;;;;;;;;;6242861;23;20169;-76
2021/05/18 12:59:02;;;;;;;4.68;3.70;;;;;;;;;;6243339;22;20381;-75
2021/05/18 13:01:47;;;;;;;3.87;3.10;;;;;;;;;;6243673;23;20173;-75
2021/05/18 13:04:38;;;;;;;4.73;3.77;;;;;;;;;;6243927;23;20212;-75
2021/05/18 13:07:22;;;;;;;3.50;3.17;;;;;;;;;;6243099;22;20232;-74
2021/05/18 13:10:08;;;;;;;3.83;2.80;;;;;;;;;;6244052;23;20212;-75
2021/05/18 13:13:00;;;;;;;2.00;1.90;;;;;;;;;;6244032;23;20603;-74
2021/05/18 13:15:45;;;;;;;2.50;2.30;;;;;;;;;;6243764;23;20212;-76
2021/05/18 13:18:29;;;;;;;2.73;2.50;;;;;;;;;;6243722;22;20240;-73
2021/05/18 13:21:19;;;;;;;2.73;2.53;;;;;;;;;;6243799;23;20173;-75
2021/05/18 13:24:27;;;;;;;2.40;2.20;;;;;;;;;;6243916;23;20210;-75
2021/05/18 13:27:11;;;;;;;4.60;3.43;;;;;;;;;;6242984;22;20255;-75
2021/05/18 13:29:55;;;;;;;4.17;3.63;;;;;;;;;;6243611;23;20188;-76
2021/05/18 13:32:40;;;;;;;3.27;2.87;;;;;;;;;;6243713;23;20561;-76
2021/05/18 13:35:26;;;;;;;3.50;3.20;;;;;;;;;;6242918;23;20204;-75
2021/05/18 13:38:11;;;;;;;5.03;3.23;;;;;;;;;;6243549;22;20204;-75
2021/05/18 13:40:55;;;;;;;3.60;3.30;;;;;;;;;;6243537;23;20224;-75
2021/05/18 13:43:40;;;;;;;3.87;3.50;;;;;;;;;;6243726;23;20176;-74
2021/05/18 13:46:24;;;;;;;3.23;2.93;;;;;;;;;;6243243;23;20220;-74
2021/05/18 13:49:09;;;;;;;5.47;3.40;;;;;;;;;;6242387;23;20687;-77
2021/05/18 13:51:53;;;;;;;3.37;3.07;;;;;;;;;;6243471;23;20424;-74
2021/05/18 13:54:39;;;;;;;3.93;3.17;;;;;;;;;;6243366;23;20196;-74
2021/05/18 13:57:24;;;;;;;3.30;3.00;;;;;;;;;;6242649;22;20567;-75
2021/05/18 14:00:09;;;;;;;3.93;2.90;;;;;;;;;;6243549;23;20204;-76
2021/05/18 14:02:54;;;;;;;3.40;3.10;;;;;;;;;;6243334;23;20196;-75
2021/05/18 14:05:38;;;;;;;4.13;3.23;;;;;;;;;;6242828;23;20168;-75
2021/05/18 14:08:24;;;;;;;4.13;3.17;;;;;;;;;;6243161;22;20244;-74
2021/05/18 14:11:10;;;;;;;3.50;3.20;;;;;;;;;;6243335;23;20196;-74
2021/05/18 14:13:55;;;;;;;4.20;3.80;;;;;;;;;;6243570;23;20196;-74
2021/05/18 14:16:40;;;;;;;3.83;3.43;;;;;;;;;;6242419;22;20297;-76
2021/05/18 14:19:25;;;;;;;4.50;3.30;;;;;;;;;;6242609;23;20169;-76
2021/05/18 14:22:09;;;;;;;3.10;2.90;;;;;;;;;;6242926;23;20215;-76
2021/05/18 14:25:03;;;;;;;3.57;3.20;;;;;;;;;;6244363;23;20169;-75
2021/05/18 14:27:49;;;;;;;3.53;3.00;;;;;;;;;;6242892;22;20216;-78
2021/05/18 14:30:34;;;;;;;3.43;3.23;;;;;;;;;;6242551;23;20620;-76
2021/05/18 14:33:18;;;;;;;2.87;2.67;;;;;;;;;;6242727;23;20171;-78
2021/05/18 14:36:03;;;;;;;3.40;3.00;;;;;;;;;;6242405;23;20299;-80
2021/05/18 14:38:48;;;;;;;5.00;4.57;;;;;;;;;;6241375;23;20461;-77
2021/05/18 14:44:37;;;;;;;2.70;2.50;;;;;;;;;;6242461;23;20249;-81
2021/05/18 14:47:23;;;;;;;3.63;2.40;;;;;;;;;;6241890;22;20522;-80
2021/05/18 14:56:15;;;;;;;2.60;2.40;;;;;;;;;;6242024;22;20631;-78
2021/05/18 14:59:00;;;;;;;3.80;2.40;;;;;;;;;;6242687;23;20169;-79
2021/05/18 15:01:45;;;;;;;1.97;1.83;;;;;;;;;;6242756;23;20739;-78
2021/05/18 15:04:30;;;;;;;2.67;2.00;;;;;;;;;;6242803;23;20219;-80
2021/05/18 15:07:15;;;;;;;2.00;1.90;;;;;;;;;;6241016;22;20267;-78
2021/05/18 15:09:59;;;;;;;2.70;1.93;;;;;;;;;;6241597;23;20255;-78
2021/05/18 15:12:44;;;;;;;2.03;1.90;;;;;;;;;;6241697;23;20168;-79
2021/05/18 15:15:28;;;;;;;2.07;1.93;;;;;;;;;;6241238;23;20228;-79
2021/05/18 15:18:13;;;;;;;1.77;1.60;;;;;;;;;;6241948;22;20219;-79
2021/05/18 15:20:58;;;;;;;4.40;1.90;;;;;;;;;;6241509;23;20168;-75
2021/05/18 15:23:43;;;;;;;1.93;1.40;;;;;;;;;;6241703;23;20176;-78
2021/05/18 15:26:28;;;;;;;1.40;1.23;;;;;;;;;;6240895;22;20432;-77
2021/05/18 15:29:12;;;;;;;2.60;1.80;;;;;;;;;;6242435;23;20165;-76
2021/05/18 15:31:57;;;;;;;1.97;1.50;;;;;;;;;;6244344;23;20253;-78
2021/05/18 15:34:42;;;;;;;3.93;3.43;;;;;;;;;;6243220;23;20267;-77
2021/05/18 15:37:27;;;;;;;1.93;1.40;;;;;;;;;;6243615;22;20834;-75
2021/05/18 15:40:11;;;;;;;1.30;1.20;;;;;;;;;;6243196;23;20632;-74
2021/05/18 15:42:56;;;;;;;2.10;1.23;;;;;;;;;;6244045;23;20192;-74
2021/05/18 15:45:41;;;;;;;1.30;1.20;;;;;;;;;;6243695;22;20213;-75
2021/05/18 15:48:25;;;;;;;2.77;1.70;;;;;;;;;;6244462;23;20259;-73
2021/05/18 15:51:10;;;;;;;2.83;1.80;;;;;;;;;;6244477;23;20177;-75
2021/05/18 15:53:55;;;;;;;2.40;1.70;;;;;;;;;;6244312;23;20660;-75
2021/05/18 15:56:40;;;;;;;4.60;1.97;;;;;;;;;;6243993;22;20216;-75
2021/05/18 15:59:24;;;;;;;3.73;1.60;;;;;;;;;;6244486;23;20211;-74
2021/05/18 16:02:09;;;;;;;2.10;1.87;;;;;;;;;;6244347;23;20187;-74
2021/05/18 16:04:53;;;;;;;3.57;1.30;;;;;;;;;;6244112;23;20363;-74
2021/05/18 16:07:41;;;;;;;4.87;2.87;;;;;;;;;;6244263;22;20244;-73
2021/05/18 16:10:26;;;;;;;3.00;2.70;;;;;;;;;;6244244;23;20168;-73
2021/05/18 16:13:10;;;;;;;1.57;1.27;;;;;;;;;;6244436;23;20549;-75
2021/05/18 16:15:56;;;;;;;1.50;1.40;;;;;;;;;;6243329;22;20551;-74
2021/05/18 16:18:41;;;;;;;1.40;1.30;;;;;;;;;;6243877;23;20449;-77
2021/05/18 16:21:26;;;;;;;2.27;1.33;;;;;;;;;;6244195;23;20192;-75
2021/05/18 16:24:11;;;;;;;1.80;1.57;;;;;;;;;;6243708;23;20647;-77
2021/05/18 16:26:55;;;;;;;1.40;1.30;;;;;;;;;;6243783;22;20204;-77
2021/05/18 16:29:40;;;;;;;2.10;1.50;;;;;;;;;;6243970;23;20196;-76
2021/05/18 16:32:25;;;;;;;1.40;1.30;;;;;;;;;;6243439;23;20187;-77
2021/05/18 16:35:12;;;;;;;2.23;1.60;;;;;;;;;;6243589;23;20201;-76
2021/05/18 16:37:56;;;;;;;1.93;1.70;;;;;;;;;;6243917;23;20169;-76
2021/05/18 16:40:41;;;;;;;3.07;1.90;;;;;;;;;;6243335;23;20399;-76
2021/05/18 16:43:26;;;;;;;2.17;1.73;;;;;;;;;;6243889;23;20511;-76
2021/05/18 16:46:11;;;;;;;4.13;1.60;;;;;;;;;;6243080;22;20680;-76
2021/05/18 16:48:55;;;;;;;1.87;1.60;;;;;;;;;;6244260;23;20663;-77
2021/05/18 16:51:40;;;;;;;2.75;1.70;;;;;;;;;;6242996;23;20432;-77
2021/05/18 16:54:24;;;;;;;1.20;1.20;;;;;;;;;;6243641;23;20193;-76
2021/05/18 16:57:10;;;;;;;1.67;1.30;;;;;;;;;;6243337;22;20269;-77
2021/05/18 16:59:54;;;;;;;1.70;1.10;;;;;;;;;;6243853;23;20168;-77
2021/05/18 17:02:39;;;;;;;1.87;1.47;;;;;;;;;;6243921;23;20168;-76
2021/05/18 17:05:25;;;;;;;2.07;1.20;;;;;;;;;;6243576;22;20548;-76
2021/05/18 17:08:10;;;;;;;1.70;1.40;;;;;;;;;;6242737;23;20377;-76
2021/05/18 17:10:55;;;;;;;1.87;1.20;;;;;;;;;;6243651;23;20173;-76
2021/05/18 17:13:40;;;;;;;2.13;1.43;;;;;;;;;;6243542;23;20201;-76
2021/05/18 17:16:25;;;;;;;2.07;1.50;;;;;;;;;;6243026;22;20523;-77
2021/05/18 17:19:09;;;;;;;1.20;1.10;;;;;;;;;;6243486;23;20243;-76
2021/05/18 17:21:54;;;;;;;1.97;1.30;;;;;;;;;;6243583;23;20235;-76
2021/05/18 17:24:38;;;;;;;1.37;1.27;;;;;;;;;;6243429;23;20168;-76
2021/05/18 17:27:23;;;;;;;1.40;1.30;;;;;;;;;;6242859;23;20204;-77
2021/05/18 17:30:10;;;;;;;2.17;1.23;;;;;;;;;;6243849;23;20168;-76
2021/05/18 17:32:54;;;;;;;2.20;1.20;;;;;;;;;;6243326;23;20176;-75
2021/05/18 17:35:39;;;;;;;2.27;1.23;;;;;;;;;;6242361;22;20267;-78
2021/05/18 17:38:23;;;;;;;1.17;1.10;;;;;;;;;;6243182;23;20309;-77
2021/05/18 17:41:08;;;;;;;1.10;1.05;;;;;;;;;;6243054;23;20377;-78
2021/05/18 17:43:55;;;;;;;1.97;1.13;;;;;;;;;;6243470;23;20215;-78
2021/05/18 17:46:40;;;;;;;1.43;1.20;;;;;;;;;;6242608;22;20201;-76
2021/05/18 17:49:25;;;;;;;1.70;1.20;;;;;;;;;;6243802;23;20222;-75
2021/05/18 17:52:09;;;;;;;1.20;1.13;;;;;;;;;;6243396;23;20176;-72
2021/05/18 17:54:54;;;;;;;1.43;1.30;;;;;;;;;;6242896;22;20517;-72
2021/05/18 17:57:39;;;;;;;1.67;1.25;;;;;;;;;;6242609;23;20757;-72
2021/05/18 18:00:23;;;;;;;1.53;1.20;;;;;;;;;;6243610;23;20172;-72
2021/05/18 18:03:08;;;;;;;2.47;1.43;;;;;;;;;;6243158;23;20243;-72
2021/05/18 18:05:53;;;;;;;2.90;1.47;;;;;;;;;;6242541;22;20253;-72
2021/05/18 18:08:40;;;;;;;1.33;1.23;;;;;;;;;;6243430;23;20173;-72
2021/05/18 18:11:25;;;;;;;1.80;1.10;;;;;;;;;;6243347;23;20184;-72
2021/05/18 18:14:09;;;;;;;1.97;1.30;;;;;;;;;;6242936;23;20220;-73
2021/05/18 18:16:54;;;;;;;1.73;1.30;;;;;;;;;;6242382;22;20204;-73
2021/05/18 18:19:41;;;;;;;1.93;1.10;;;;;;;;;;6243002;23;20172;-72
2021/05/18 18:22:25;;;;;;;2.60;1.50;;;;;;;;;;6242891;23;20714;-72
2021/05/18 18:25:11;;;;;;;2.97;1.30;;;;;;;;;;6242719;22;20208;-74
2021/05/18 18:27:56;;;;;;;1.87;1.33;;;;;;;;;;6243506;23;20168;-72
2021/05/18 18:30:40;;;;;;;1.30;1.20;;;;;;;;;;6243080;23;20176;-72
2021/05/18 18:33:25;;;;;;;2.50;1.30;;;;;;;;;;6242821;23;20172;-73
2021/05/18 18:36:10;;;;;;;1.77;1.10;;;;;;;;;;6241902;22;20389;-72
2021/05/18 18:38:54;;;;;;;2.00;1.43;;;;;;;;;;6242777;23;20667;-72
2021/05/18 18:41:39;;;;;;;2.17;1.30;;;;;;;;;;6242971;23;20203;-72
2021/05/18 18:44:23;;;;;;;2.37;1.27;;;;;;;;;;6243223;23;20188;-72
2021/05/18 18:47:11;;;;;;;1.50;1.40;;;;;;;;;;6241269;23;20851;-72
2021/05/18 18:49:56;;;;;;;1.97;1.30;;;;;;;;;;6243233;23;20219;-73
2021/05/18 18:52:48;;;;;;;4.87;1.70;;;;;;;;;;6242677;23;20168;-72
2021/05/18 18:55:33;;;;;;;1.90;1.70;;;;;;;;;;6241949;22;20330;-73
2021/05/18 18:58:17;;;;;;;2.27;2.07;;;;;;;;;;6242766;23;20503;-72
2021/05/18 19:01:02;;;;;;;2.43;1.70;;;;;;;;;;6242527;23;20170;-73
2021/05/18 19:03:48;;;;;;;3.20;1.70;;;;;;;;;;6242750;23;20501;-72
2021/05/18 19:06:37;;;;;;;2.33;1.60;;;;;;;;;;6241988;22;20256;-72
2021/05/18 19:12:45;;;;;;;3.30;1.90;;;;;;;;;;6237064;23;20183;-72
2021/05/18 19:15:29;;;;;;;3.30;1.80;;;;;;;;;;6241801;22;20222;-72
2021/05/18 19:18:14;;;;;;;5.57;2.40;;;;;;;;;;6242688;23;20167;-72
2021/05/18 19:20:59;;;;;;;2.53;2.30;;;;;;;;;;6241823;23;20645;-72
2021/05/18 19:23:43;;;;;;;2.63;2.10;;;;;;;;;;6242670;23;20181;-72
2021/05/18 19:26:29;;;;;;;2.80;1.97;;;;;;;;;;6242133;22;20724;-72
2021/05/18 19:29:14;;;;;;;2.97;2.10;;;;;;;;;;6242674;23;20673;-73
2021/05/18 19:31:58;;;;;;;3.77;1.90;;;;;;;;;;6242765;23;20242;-72
2021/05/18 19:34:44;;;;;;;5.73;2.27;;;;;;;;;;6242455;22;20216;-73
2021/05/18 19:37:35;;;;;;;3.22;2.00;;;;;;;;;;6240896;23;20397;-72
2021/05/18 19:43:49;;;;;;;2.53;1.87;;;;;;;;;;6149460;23;20506;-73
2021/05/18 19:49:36;;;;;;;4.17;2.10;;;;;;;;;;6178708;23;20742;-72
2021/05/18 19:52:21;;;;;;;2.63;2.43;;;;;;;;;;6242244;23;20247;-73
2021/05/18 19:55:07;;;;;;;2.60;2.40;;;;;;;;;;6242075;22;20712;-73
2021/05/18 19:57:54;;;;;;;3.83;2.70;;;;;;;;;;6242136;23;20175;-73
2021/05/18 20:16:27;;;;;;;4.37;3.13;;;;;;;;;;6178681;23;20336;-74
2021/05/18 20:19:27;;;;;;;3.03;2.50;;;;;;;;;;6244419;23;20200;-73
2021/05/18 20:22:15;;;;;;;3.97;3.30;;;;;;;;;;6244083;23;20170;-72
2021/05/18 20:24:59;;;;;;;4.88;3.50;;;;;;;;;;6243972;22;20396;-73
2021/05/18 20:27:44;;;;;;;4.53;3.50;;;;;;;;;;6244410;23;20193;-74
2021/05/18 20:30:29;;;;;;;3.50;3.20;;;;;;;;;;6244284;23;20307;-74
2021/05/18 20:33:27;;;;;;;3.30;3.03;;;;;;;;;;6244142;23;20169;-74
2021/05/18 20:39:15;;;;;;;4.00;3.60;;;;;;;;;;6244187;23;20167;-74
2021/05/18 20:42:00;;;;;;;4.03;3.60;;;;;;;;;;6244159;23;20202;-74
2021/05/18 20:44:45;;;;;;;4.23;3.23;;;;;;;;;;6243873;22;20523;-74
2021/05/18 20:47:30;;;;;;;4.80;3.67;;;;;;;;;;6243710;23;20169;-74
2021/05/18 20:50:16;;;;;;;5.03;3.73;;;;;;;;;;6243709;23;20177;-74
2021/05/18 20:53:01;;;;;;;3.80;3.50;;;;;;;;;;6243943;23;20251;-74
2021/05/18 20:55:45;;;;;;;5.23;3.70;;;;;;;;;;6243372;22;20213;-74
2021/05/18 20:58:30;;;;;;;3.27;3.00;;;;;;;;;;6243826;23;20581;-74
2021/05/18 21:01:14;;;;;;;4.00;3.60;;;;;;;;;;6243906;23;20200;-74
2021/05/18 21:03:59;;;;;;;3.83;3.53;;;;;;;;;;6243895;23;20216;-74
2021/05/18 21:06:51;;;;;;;3.60;3.30;;;;;;;;;;6241845;23;20196;-74
2021/05/18 21:09:42;;;;;;;3.40;3.10;;;;;;;;;;6241107;23;20216;-73
2021/05/18 21:12:34;;;;;;;5.20;3.80;;;;;;;;;;6243484;23;20213;-74